sensor_id;sensor_type;location;lat;lon;timestamp;temperature;humidity
25668;DHT22;18003;-33.830;151.202;2023-07-31T00:00:35;16.50;99.90
25668;DHT22;18003;-33.830;151.202;2023-07-31T00:03:07;16.50;99.90
25668;DHT22;18003;-33.830;151.202;2023-07-31T00:05:51;16.50;99.90
25668;DHT22;18003;-33.830;151.202;2023-07-31T00:08:19;16.50;99.90
25668;DHT22;18003;-33.830;151.202;2023-07-31T00:11:10;16.60;99.90
25668;DHT22;18003;-33.830;151.202;2023-07-31T00:13:56;16.60;99.90
25668;DHT22;18003;-33.830;151.202;2023-07-31T00:16:26;16.60;99.90
25668;DHT22;18003;-33.830;151.202;2023-07-31T00:18:56;16.60;99.90
25668;DHT22;18003;-33.830;151.202;2023-07-31T00:21:36;16.60;99.90
25668;DHT22;18003;-33.830;151.202;2023-07-31T00:24:39;16.60;99.90
25668;DHT22;18003;-33.830;151.202;2023-07-31T00:27:17;16.60;99.90
25668;DHT22;18003;-33.830;151.202;2023-07-31T00:29:47;16.60;99.90
25668;DHT22;18003;-33.830;151.202;2023-07-31T00:32:25;16.60;99.90
25668;DHT22;18003;-33.830;151.202;2023-07-31T00:34:56;16.60;99.90
25668;DHT22;18003;-33.830;151.202;2023-07-31T00:37:26;16.60;99.90
25668;DHT22;18003;-33.830;151.202;2023-07-31T00:39:59;16.60;99.90
25668;DHT22;18003;-33.830;151.202;2023-07-31T00:42:31;16.70;99.90
25668;DHT22;18003;-33.830;151.202;2023-07-31T00:45:01;16.70;99.90
25668;DHT22;18003;-33.830;151.202;2023-07-31T00:47:34;16.70;99.90
25668;DHT22;18003;-33.830;151.202;2023-07-31T00:50:06;16.70;99.90
25668;DHT22;18003;-33.830;151.202;2023-07-31T00:52:36;16.80;99.90
25668;DHT22;18003;-33.830;151.202;2023-07-31T00:55:07;16.70;99.90
25668;DHT22;18003;-33.830;151.202;2023-07-31T00:57:38;16.80;99.90
25668;DHT22;18003;-33.830;151.202;2023-07-31T01:00:10;16.80;99.90
25668;DHT22;18003;-33.830;151.202;2023-07-31T01:02:40;16.90;99.90
25668;DHT22;18003;-33.830;151.202;2023-07-31T01:05:10;16.80;99.90
25668;DHT22;18003;-33.830;151.202;2023-07-31T01:08:03;16.90;99.90
25668;DHT22;18003;-33.830;151.202;2023-07-31T01:10:33;16.90;99.90
25668;DHT22;18003;-33.830;151.202;2023-07-31T01:13:03;16.90;99.90
25668;DHT22;18003;-33.830;151.202;2023-07-31T01:15:33;16.80;99.90
25668;DHT22;18003;-33.830;151.202;2023-07-31T01:18:03;16.80;99.90
25668;DHT22;18003;-33.830;151.202;2023-07-31T01:20:34;16.80;99.90
25668;DHT22;18003;-33.830;151.202;2023-07-31T01:23:35;16.80;99.90
25668;DHT22;18003;-33.830;151.202;2023-07-31T01:26:21;16.70;99.90
25668;DHT22;18003;-33.830;151.202;2023-07-31T01:28:56;16.70;99.90
25668;DHT22;18003;-33.830;151.202;2023-07-31T01:31:26;16.70;99.90
25668;DHT22;18003;-33.830;151.202;2023-07-31T01:33:59;16.70;99.90
25668;DHT22;18003;-33.830;151.202;2023-07-31T01:36:35;16.70;99.90
25668;DHT22;18003;-33.830;151.202;2023-07-31T01:39:01;16.70;99.90
25668;DHT22;18003;-33.830;151.202;2023-07-31T01:41:32;16.70;99.90
25668;DHT22;18003;-33.830;151.202;2023-07-31T01:44:01;16.80;99.90
25668;DHT22;18003;-33.830;151.202;2023-07-31T01:46:32;16.80;99.90
25668;DHT22;18003;-33.830;151.202;2023-07-31T01:49:02;16.80;99.90
25668;DHT22;18003;-33.830;151.202;2023-07-31T01:51:33;16.80;99.90
25668;DHT22;18003;-33.830;151.202;2023-07-31T01:54:03;16.80;99.90
25668;DHT22;18003;-33.830;151.202;2023-07-31T01:56:33;16.80;99.90
25668;DHT22;18003;-33.830;151.202;2023-07-31T01:59:03;16.80;99.90
25668;DHT22;18003;-33.830;151.202;2023-07-31T02:01:33;16.80;99.90
25668;DHT22;18003;-33.830;151.202;2023-07-31T02:04:04;16.80;99.90
25668;DHT22;18003;-33.830;151.202;2023-07-31T02:06:34;16.80;99.90
25668;DHT22;18003;-33.830;151.202;2023-07-31T02:09:04;16.80;99.90
25668;DHT22;18003;-33.830;151.202;2023-07-31T02:11:34;16.80;99.90
25668;DHT22;18003;-33.830;151.202;2023-07-31T02:14:04;16.80;99.90
25668;DHT22;18003;-33.830;151.202;2023-07-31T02:16:35;16.80;99.90
25668;DHT22;18003;-33.830;151.202;2023-07-31T02:19:31;16.80;99.90
25668;DHT22;18003;-33.830;151.202;2023-07-31T02:21:58;16.80;99.90
25668;DHT22;18003;-33.830;151.202;2023-07-31T02:24:31;16.80;99.90
25668;DHT22;18003;-33.830;151.202;2023-07-31T02:27:01;16.80;99.90
25668;DHT22;18003;-33.830;151.202;2023-07-31T02:29:56;16.80;99.90
25668;DHT22;18003;-33.830;151.202;2023-07-31T02:32:36;16.80;99.90
25668;DHT22;18003;-33.830;151.202;2023-07-31T02:37:57;16.90;99.90
25668;DHT22;18003;-33.830;151.202;2023-07-31T02:40:27;16.90;99.90
25668;DHT22;18003;-33.830;151.202;2023-07-31T02:42:57;16.90;99.90
25668;DHT22;18003;-33.830;151.202;2023-07-31T02:45:27;16.90;99.90
25668;DHT22;18003;-33.830;151.202;2023-07-31T02:47:57;16.90;99.90
25668;DHT22;18003;-33.830;151.202;2023-07-31T02:50:27;16.90;99.90
25668;DHT22;18003;-33.830;151.202;2023-07-31T02:52:57;16.90;99.90
25668;DHT22;18003;-33.830;151.202;2023-07-31T02:55:27;16.90;99.90
25668;DHT22;18003;-33.830;151.202;2023-07-31T02:57:57;16.90;99.90
25668;DHT22;18003;-33.830;151.202;2023-07-31T03:00:27;16.90;99.90
25668;DHT22;18003;-33.830;151.202;2023-07-31T03:02:57;16.90;99.90
25668;DHT22;18003;-33.830;151.202;2023-07-31T03:05:27;16.90;99.90
25668;DHT22;18003;-33.830;151.202;2023-07-31T03:07:57;16.90;99.90
25668;DHT22;18003;-33.830;151.202;2023-07-31T03:10:27;16.90;99.90
25668;DHT22;18003;-33.830;151.202;2023-07-31T03:12:57;16.90;99.90
25668;DHT22;18003;-33.830;151.202;2023-07-31T03:15:27;16.90;99.90
25668;DHT22;18003;-33.830;151.202;2023-07-31T03:17:57;16.90;99.90
25668;DHT22;18003;-33.830;151.202;2023-07-31T03:20:28;16.90;99.90
25668;DHT22;18003;-33.830;151.202;2023-07-31T03:22:58;16.90;99.90
25668;DHT22;18003;-33.830;151.202;2023-07-31T03:25:28;16.90;99.90
25668;DHT22;18003;-33.830;151.202;2023-07-31T03:27:58;17.00;99.90
25668;DHT22;18003;-33.830;151.202;2023-07-31T03:30:28;17.00;99.90
25668;DHT22;18003;-33.830;151.202;2023-07-31T03:32:58;17.00;99.90
25668;DHT22;18003;-33.830;151.202;2023-07-31T03:35:28;17.00;99.90
25668;DHT22;18003;-33.830;151.202;2023-07-31T03:37:59;17.00;99.90
25668;DHT22;18003;-33.830;151.202;2023-07-31T03:40:29;17.00;99.90
25668;DHT22;18003;-33.830;151.202;2023-07-31T03:42:59;17.00;99.90
25668;DHT22;18003;-33.830;151.202;2023-07-31T03:45:29;17.00;99.90
25668;DHT22;18003;-33.830;151.202;2023-07-31T03:47:59;17.00;99.90
25668;DHT22;18003;-33.830;151.202;2023-07-31T03:50:29;16.90;99.90
25668;DHT22;18003;-33.830;151.202;2023-07-31T03:52:59;17.00;99.90
25668;DHT22;18003;-33.830;151.202;2023-07-31T03:55:29;17.00;99.90
25668;DHT22;18003;-33.830;151.202;2023-07-31T03:57:59;17.00;99.90
25668;DHT22;18003;-33.830;151.202;2023-07-31T04:00:29;17.00;99.90
25668;DHT22;18003;-33.830;151.202;2023-07-31T04:02:59;17.10;99.90
25668;DHT22;18003;-33.830;151.202;2023-07-31T04:05:31;17.10;99.80
25668;DHT22;18003;-33.830;151.202;2023-07-31T04:08:01;17.10;99.60
25668;DHT22;18003;-33.830;151.202;2023-07-31T04:10:31;17.10;99.70
25668;DHT22;18003;-33.830;151.202;2023-07-31T04:13:01;17.10;99.90
25668;DHT22;18003;-33.830;151.202;2023-07-31T04:15:31;17.00;99.90
25668;DHT22;18003;-33.830;151.202;2023-07-31T04:18:01;17.10;99.90
25668;DHT22;18003;-33.830;151.202;2023-07-31T04:20:31;17.10;99.90
25668;DHT22;18003;-33.830;151.202;2023-07-31T04:23:01;17.10;99.90
25668;DHT22;18003;-33.830;151.202;2023-07-31T04:25:31;17.10;99.50
25668;DHT22;18003;-33.830;151.202;2023-07-31T04:28:03;17.10;99.50
25668;DHT22;18003;-33.830;151.202;2023-07-31T04:30:33;17.10;99.40
25668;DHT22;18003;-33.830;151.202;2023-07-31T04:33:04;17.20;99.20
25668;DHT22;18003;-33.830;151.202;2023-07-31T04:35:34;17.10;99.20
25668;DHT22;18003;-33.830;151.202;2023-07-31T04:38:04;17.10;99.60
25668;DHT22;18003;-33.830;151.202;2023-07-31T04:40:34;17.10;99.70
25668;DHT22;18003;-33.830;151.202;2023-07-31T04:43:04;17.10;99.90
25668;DHT22;18003;-33.830;151.202;2023-07-31T04:45:34;17.20;99.90
25668;DHT22;18003;-33.830;151.202;2023-07-31T04:48:04;17.20;99.90
25668;DHT22;18003;-33.830;151.202;2023-07-31T04:50:34;17.20;99.90
25668;DHT22;18003;-33.830;151.202;2023-07-31T04:53:05;17.20;99.90
25668;DHT22;18003;-33.830;151.202;2023-07-31T04:55:34;17.20;99.70
25668;DHT22;18003;-33.830;151.202;2023-07-31T04:58:05;17.30;99.90
25668;DHT22;18003;-33.830;151.202;2023-07-31T05:00:35;17.30;99.90
25668;DHT22;18003;-33.830;151.202;2023-07-31T05:03:05;17.20;99.80
25668;DHT22;18003;-33.830;151.202;2023-07-31T05:05:35;17.20;99.80
25668;DHT22;18003;-33.830;151.202;2023-07-31T05:08:05;17.20;99.70
25668;DHT22;18003;-33.830;151.202;2023-07-31T05:10:35;17.20;99.90
25668;DHT22;18003;-33.830;151.202;2023-07-31T05:13:05;17.20;99.90
25668;DHT22;18003;-33.830;151.202;2023-07-31T05:15:35;17.30;99.80
25668;DHT22;18003;-33.830;151.202;2023-07-31T05:18:05;17.30;99.80
25668;DHT22;18003;-33.830;151.202;2023-07-31T05:20:35;17.30;99.10
25668;DHT22;18003;-33.830;151.202;2023-07-31T05:23:05;17.30;99.30
25668;DHT22;18003;-33.830;151.202;2023-07-31T05:25:35;17.20;99.20
25668;DHT22;18003;-33.830;151.202;2023-07-31T05:28:05;17.20;99.50
25668;DHT22;18003;-33.830;151.202;2023-07-31T05:30:36;17.30;99.10
25668;DHT22;18003;-33.830;151.202;2023-07-31T05:33:06;17.20;99.40
25668;DHT22;18003;-33.830;151.202;2023-07-31T05:35:36;17.20;99.40
25668;DHT22;18003;-33.830;151.202;2023-07-31T05:38:06;17.20;99.90
25668;DHT22;18003;-33.830;151.202;2023-07-31T05:40:36;17.20;99.80
25668;DHT22;18003;-33.830;151.202;2023-07-31T05:43:06;17.20;99.90
25668;DHT22;18003;-33.830;151.202;2023-07-31T05:45:36;17.20;99.70
25668;DHT22;18003;-33.830;151.202;2023-07-31T05:48:07;17.20;99.90
25668;DHT22;18003;-33.830;151.202;2023-07-31T05:50:37;17.20;99.60
25668;DHT22;18003;-33.830;151.202;2023-07-31T05:53:08;17.20;99.90
25668;DHT22;18003;-33.830;151.202;2023-07-31T05:55:38;17.20;99.90
25668;DHT22;18003;-33.830;151.202;2023-07-31T05:58:08;17.30;99.50
25668;DHT22;18003;-33.830;151.202;2023-07-31T06:00:38;17.20;99.90
25668;DHT22;18003;-33.830;151.202;2023-07-31T06:03:09;17.20;99.90
25668;DHT22;18003;-33.830;151.202;2023-07-31T06:05:39;17.20;99.50
25668;DHT22;18003;-33.830;151.202;2023-07-31T06:08:09;17.20;99.90
25668;DHT22;18003;-33.830;151.202;2023-07-31T06:10:43;17.20;99.80
25668;DHT22;18003;-33.830;151.202;2023-07-31T06:13:10;17.20;99.20
25668;DHT22;18003;-33.830;151.202;2023-07-31T06:15:40;17.20;99.60
25668;DHT22;18003;-33.830;151.202;2023-07-31T06:18:10;17.20;99.80
25668;DHT22;18003;-33.830;151.202;2023-07-31T06:20:40;17.20;99.90
25668;DHT22;18003;-33.830;151.202;2023-07-31T06:23:11;17.20;99.90
25668;DHT22;18003;-33.830;151.202;2023-07-31T06:25:41;17.10;99.90
25668;DHT22;18003;-33.830;151.202;2023-07-31T06:28:11;17.10;99.90
25668;DHT22;18003;-33.830;151.202;2023-07-31T06:30:41;17.10;99.90
25668;DHT22;18003;-33.830;151.202;2023-07-31T06:33:12;17.10;99.90
25668;DHT22;18003;-33.830;151.202;2023-07-31T06:35:42;17.10;99.90
25668;DHT22;18003;-33.830;151.202;2023-07-31T06:38:12;17.10;99.90
25668;DHT22;18003;-33.830;151.202;2023-07-31T06:40:42;17.10;99.90
25668;DHT22;18003;-33.830;151.202;2023-07-31T06:43:12;17.00;99.90
25668;DHT22;18003;-33.830;151.202;2023-07-31T06:45:42;17.00;99.90
25668;DHT22;18003;-33.830;151.202;2023-07-31T06:48:12;17.00;99.90
25668;DHT22;18003;-33.830;151.202;2023-07-31T06:50:42;17.00;99.90
25668;DHT22;18003;-33.830;151.202;2023-07-31T06:53:17;17.00;99.90
25668;DHT22;18003;-33.830;151.202;2023-07-31T06:55:46;17.00;99.90
25668;DHT22;18003;-33.830;151.202;2023-07-31T06:58:16;17.00;99.90
25668;DHT22;18003;-33.830;151.202;2023-07-31T07:00:46;17.00;99.90
25668;DHT22;18003;-33.830;151.202;2023-07-31T07:03:18;17.00;99.90
25668;DHT22;18003;-33.830;151.202;2023-07-31T07:05:53;17.10;99.90
25668;DHT22;18003;-33.830;151.202;2023-07-31T07:08:19;17.10;99.90
25668;DHT22;18003;-33.830;151.202;2023-07-31T07:10:49;17.10;99.90
25668;DHT22;18003;-33.830;151.202;2023-07-31T07:13:20;17.10;99.90
25668;DHT22;18003;-33.830;151.202;2023-07-31T07:15:51;17.10;99.90
25668;DHT22;18003;-33.830;151.202;2023-07-31T07:18:21;17.10;99.90
25668;DHT22;18003;-33.830;151.202;2023-07-31T07:20:54;17.10;99.90
25668;DHT22;18003;-33.830;151.202;2023-07-31T07:23:25;17.10;99.90
25668;DHT22;18003;-33.830;151.202;2023-07-31T07:25:55;17.10;99.90
25668;DHT22;18003;-33.830;151.202;2023-07-31T07:28:25;17.10;99.90
25668;DHT22;18003;-33.830;151.202;2023-07-31T07:30:56;17.10;99.90
25668;DHT22;18003;-33.830;151.202;2023-07-31T07:33:26;17.00;99.90
25668;DHT22;18003;-33.830;151.202;2023-07-31T07:36:01;17.10;99.90
25668;DHT22;18003;-33.830;151.202;2023-07-31T07:38:31;17.10;99.90
25668;DHT22;18003;-33.830;151.202;2023-07-31T07:41:01;17.10;99.90
25668;DHT22;18003;-33.830;151.202;2023-07-31T07:43:31;17.00;99.90
25668;DHT22;18003;-33.830;151.202;2023-07-31T07:46:01;17.00;99.90
25668;DHT22;18003;-33.830;151.202;2023-07-31T07:48:31;17.00;99.90
25668;DHT22;18003;-33.830;151.202;2023-07-31T07:51:01;17.00;99.90
25668;DHT22;18003;-33.830;151.202;2023-07-31T07:53:32;16.90;99.90
25668;DHT22;18003;-33.830;151.202;2023-07-31T07:56:02;17.00;99.90
25668;DHT22;18003;-33.830;151.202;2023-07-31T07:58:32;16.90;99.90
25668;DHT22;18003;-33.830;151.202;2023-07-31T08:01:03;16.90;99.90
25668;DHT22;18003;-33.830;151.202;2023-07-31T08:03:33;16.90;99.90
25668;DHT22;18003;-33.830;151.202;2023-07-31T08:06:03;16.90;99.90
25668;DHT22;18003;-33.830;151.202;2023-07-31T08:08:33;16.90;99.90
25668;DHT22;18003;-33.830;151.202;2023-07-31T08:11:03;16.90;99.90
25668;DHT22;18003;-33.830;151.202;2023-07-31T08:13:33;16.90;99.90
25668;DHT22;18003;-33.830;151.202;2023-07-31T08:16:04;16.90;99.90
25668;DHT22;18003;-33.830;151.202;2023-07-31T08:18:34;16.80;99.90
25668;DHT22;18003;-33.830;151.202;2023-07-31T08:21:04;16.80;99.90
25668;DHT22;18003;-33.830;151.202;2023-07-31T08:23:34;16.80;99.90
25668;DHT22;18003;-33.830;151.202;2023-07-31T08:26:04;16.80;99.90
25668;DHT22;18003;-33.830;151.202;2023-07-31T08:28:35;16.80;99.90
25668;DHT22;18003;-33.830;151.202;2023-07-31T08:31:05;16.70;99.90
25668;DHT22;18003;-33.830;151.202;2023-07-31T08:33:35;16.80;99.90
25668;DHT22;18003;-33.830;151.202;2023-07-31T08:36:05;16.70;99.90
25668;DHT22;18003;-33.830;151.202;2023-07-31T08:38:36;16.70;99.90
25668;DHT22;18003;-33.830;151.202;2023-07-31T08:41:06;16.70;99.90
25668;DHT22;18003;-33.830;151.202;2023-07-31T08:43:37;16.70;99.90
25668;DHT22;18003;-33.830;151.202;2023-07-31T08:46:07;16.60;99.90
25668;DHT22;18003;-33.830;151.202;2023-07-31T08:48:38;16.60;99.90
25668;DHT22;18003;-33.830;151.202;2023-07-31T08:51:09;16.60;99.90
25668;DHT22;18003;-33.830;151.202;2023-07-31T08:53:39;16.60;99.90
25668;DHT22;18003;-33.830;151.202;2023-07-31T08:56:09;16.60;99.90
25668;DHT22;18003;-33.830;151.202;2023-07-31T08:58:40;16.60;99.90
25668;DHT22;18003;-33.830;151.202;2023-07-31T09:01:10;16.50;99.90
25668;DHT22;18003;-33.830;151.202;2023-07-31T09:03:41;16.50;99.90
25668;DHT22;18003;-33.830;151.202;2023-07-31T09:06:12;16.50;99.90
25668;DHT22;18003;-33.830;151.202;2023-07-31T09:08:43;16.50;99.90
25668;DHT22;18003;-33.830;151.202;2023-07-31T09:11:13;16.50;99.90
25668;DHT22;18003;-33.830;151.202;2023-07-31T09:13:44;16.50;99.90
25668;DHT22;18003;-33.830;151.202;2023-07-31T09:16:15;16.50;99.90
25668;DHT22;18003;-33.830;151.202;2023-07-31T09:18:57;16.50;99.90
25668;DHT22;18003;-33.830;151.202;2023-07-31T09:21:29;16.50;99.90
25668;DHT22;18003;-33.830;151.202;2023-07-31T09:23:58;16.40;99.90
25668;DHT22;18003;-33.830;151.202;2023-07-31T09:26:32;16.40;99.90
25668;DHT22;18003;-33.830;151.202;2023-07-31T09:29:05;16.40;99.90
25668;DHT22;18003;-33.830;151.202;2023-07-31T09:31:41;16.40;99.90
25668;DHT22;18003;-33.830;151.202;2023-07-31T09:34:11;16.30;99.90
25668;DHT22;18003;-33.830;151.202;2023-07-31T09:39:14;16.30;99.90
25668;DHT22;18003;-33.830;151.202;2023-07-31T09:41:53;16.30;99.90
25668;DHT22;18003;-33.830;151.202;2023-07-31T09:44:17;16.30;99.90
25668;DHT22;18003;-33.830;151.202;2023-07-31T09:46:47;16.30;99.90
25668;DHT22;18003;-33.830;151.202;2023-07-31T09:49:17;16.30;99.90
25668;DHT22;18003;-33.830;151.202;2023-07-31T09:51:48;16.30;99.90
25668;DHT22;18003;-33.830;151.202;2023-07-31T09:54:18;16.30;99.90
25668;DHT22;18003;-33.830;151.202;2023-07-31T09:56:48;16.30;99.90
25668;DHT22;18003;-33.830;151.202;2023-07-31T09:59:19;16.30;99.90
25668;DHT22;18003;-33.830;151.202;2023-07-31T10:01:49;16.20;99.90
25668;DHT22;18003;-33.830;151.202;2023-07-31T10:04:20;16.20;99.90
25668;DHT22;18003;-33.830;151.202;2023-07-31T10:06:53;16.20;99.90
25668;DHT22;18003;-33.830;151.202;2023-07-31T10:09:25;16.20;99.90
25668;DHT22;18003;-33.830;151.202;2023-07-31T10:11:59;16.20;99.90
25668;DHT22;18003;-33.830;151.202;2023-07-31T10:14:28;16.20;99.90
25668;DHT22;18003;-33.830;151.202;2023-07-31T10:16:59;16.10;99.90
25668;DHT22;18003;-33.830;151.202;2023-07-31T10:19:31;16.10;99.90
25668;DHT22;18003;-33.830;151.202;2023-07-31T10:22:02;16.10;99.90
25668;DHT22;18003;-33.830;151.202;2023-07-31T10:24:33;16.10;99.90
25668;DHT22;18003;-33.830;151.202;2023-07-31T10:27:05;16.10;99.90
25668;DHT22;18003;-33.830;151.202;2023-07-31T10:29:41;16.10;99.90
25668;DHT22;18003;-33.830;151.202;2023-07-31T10:32:08;16.10;99.90
25668;DHT22;18003;-33.830;151.202;2023-07-31T10:34:40;16.10;99.90
25668;DHT22;18003;-33.830;151.202;2023-07-31T10:37:26;16.00;99.90
25668;DHT22;18003;-33.830;151.202;2023-07-31T10:40:00;16.00;99.90
25668;DHT22;18003;-33.830;151.202;2023-07-31T10:42:35;16.00;99.90
25668;DHT22;18003;-33.830;151.202;2023-07-31T10:45:07;16.00;99.90
25668;DHT22;18003;-33.830;151.202;2023-07-31T10:47:44;16.00;99.90
25668;DHT22;18003;-33.830;151.202;2023-07-31T10:50:18;16.00;99.90
25668;DHT22;18003;-33.830;151.202;2023-07-31T10:52:53;16.00;99.90
25668;DHT22;18003;-33.830;151.202;2023-07-31T10:55:43;16.00;99.90
25668;DHT22;18003;-33.830;151.202;2023-07-31T10:58:17;16.00;99.90
25668;DHT22;18003;-33.830;151.202;2023-07-31T11:00:47;16.00;99.90
25668;DHT22;18003;-33.830;151.202;2023-07-31T11:03:18;16.00;99.90
25668;DHT22;18003;-33.830;151.202;2023-07-31T11:08:23;16.00;99.90
25668;DHT22;18003;-33.830;151.202;2023-07-31T11:13:41;15.90;99.90
25668;DHT22;18003;-33.830;151.202;2023-07-31T11:16:12;15.90;99.90
25668;DHT22;18003;-33.830;151.202;2023-07-31T11:18:45;15.90;99.90
25668;DHT22;18003;-33.830;151.202;2023-07-31T11:21:17;15.90;99.90
25668;DHT22;18003;-33.830;151.202;2023-07-31T11:23:47;15.90;99.90
25668;DHT22;18003;-33.830;151.202;2023-07-31T11:26:17;15.90;99.90
25668;DHT22;18003;-33.830;151.202;2023-07-31T11:28:51;15.90;99.90
25668;DHT22;18003;-33.830;151.202;2023-07-31T11:31:21;15.80;99.90
25668;DHT22;18003;-33.830;151.202;2023-07-31T11:34:03;15.90;99.90
25668;DHT22;18003;-33.830;151.202;2023-07-31T11:36:22;15.90;99.90
25668;DHT22;18003;-33.830;151.202;2023-07-31T11:38:52;15.90;99.90
25668;DHT22;18003;-33.830;151.202;2023-07-31T11:41:22;15.90;99.90
25668;DHT22;18003;-33.830;151.202;2023-07-31T11:43:59;15.80;99.90
25668;DHT22;18003;-33.830;151.202;2023-07-31T11:46:23;15.90;99.90
25668;DHT22;18003;-33.830;151.202;2023-07-31T11:48:55;15.80;99.90
25668;DHT22;18003;-33.830;151.202;2023-07-31T11:51:24;15.80;99.90
25668;DHT22;18003;-33.830;151.202;2023-07-31T11:53:55;15.80;99.90
25668;DHT22;18003;-33.830;151.202;2023-07-31T11:56:25;15.80;99.90
25668;DHT22;18003;-33.830;151.202;2023-07-31T11:58:59;15.80;99.90
25668;DHT22;18003;-33.830;151.202;2023-07-31T12:01:32;15.80;99.90
25668;DHT22;18003;-33.830;151.202;2023-07-31T12:04:02;15.80;99.90
25668;DHT22;18003;-33.830;151.202;2023-07-31T12:06:36;15.80;99.90
25668;DHT22;18003;-33.830;151.202;2023-07-31T12:09:06;15.80;99.90
25668;DHT22;18003;-33.830;151.202;2023-07-31T12:11:48;15.80;99.90
25668;DHT22;18003;-33.830;151.202;2023-07-31T12:14:24;15.70;99.90
25668;DHT22;18003;-33.830;151.202;2023-07-31T12:16:59;15.70;99.90
25668;DHT22;18003;-33.830;151.202;2023-07-31T12:19:29;15.70;99.90
25668;DHT22;18003;-33.830;151.202;2023-07-31T12:21:59;15.70;99.90
25668;DHT22;18003;-33.830;151.202;2023-07-31T12:24:29;15.70;99.90
25668;DHT22;18003;-33.830;151.202;2023-07-31T12:26:59;15.70;99.90
25668;DHT22;18003;-33.830;151.202;2023-07-31T12:29:36;15.70;99.90
25668;DHT22;18003;-33.830;151.202;2023-07-31T12:32:27;15.70;99.90
25668;DHT22;18003;-33.830;151.202;2023-07-31T12:34:42;15.70;99.90
25668;DHT22;18003;-33.830;151.202;2023-07-31T12:37:07;15.60;99.90
25668;DHT22;18003;-33.830;151.202;2023-07-31T12:39:37;15.60;99.90
25668;DHT22;18003;-33.830;151.202;2023-07-31T12:42:07;15.60;99.90
25668;DHT22;18003;-33.830;151.202;2023-07-31T12:44:37;15.60;99.90
25668;DHT22;18003;-33.830;151.202;2023-07-31T12:47:07;15.60;99.90
25668;DHT22;18003;-33.830;151.202;2023-07-31T12:49:37;15.60;99.90
25668;DHT22;18003;-33.830;151.202;2023-07-31T12:52:07;15.60;99.90
25668;DHT22;18003;-33.830;151.202;2023-07-31T12:54:37;15.60;99.90
25668;DHT22;18003;-33.830;151.202;2023-07-31T12:57:06;15.50;99.90
25668;DHT22;18003;-33.830;151.202;2023-07-31T12:59:36;15.50;99.90
25668;DHT22;18003;-33.830;151.202;2023-07-31T13:02:07;15.50;99.90
25668;DHT22;18003;-33.830;151.202;2023-07-31T13:04:36;15.50;99.90
25668;DHT22;18003;-33.830;151.202;2023-07-31T13:07:07;15.50;99.90
25668;DHT22;18003;-33.830;151.202;2023-07-31T13:09:36;15.50;99.90
25668;DHT22;18003;-33.830;151.202;2023-07-31T13:12:07;15.50;99.90
25668;DHT22;18003;-33.830;151.202;2023-07-31T13:14:36;15.50;99.90
25668;DHT22;18003;-33.830;151.202;2023-07-31T13:17:06;15.50;99.90
25668;DHT22;18003;-33.830;151.202;2023-07-31T13:19:36;15.50;99.90
25668;DHT22;18003;-33.830;151.202;2023-07-31T13:22:06;15.50;99.90
25668;DHT22;18003;-33.830;151.202;2023-07-31T13:24:36;15.50;99.90
25668;DHT22;18003;-33.830;151.202;2023-07-31T13:27:06;15.40;99.90
25668;DHT22;18003;-33.830;151.202;2023-07-31T13:29:35;15.50;99.90
25668;DHT22;18003;-33.830;151.202;2023-07-31T13:32:06;15.40;99.90
25668;DHT22;18003;-33.830;151.202;2023-07-31T13:34:35;15.40;99.90
25668;DHT22;18003;-33.830;151.202;2023-07-31T13:37:05;15.40;99.90
25668;DHT22;18003;-33.830;151.202;2023-07-31T13:39:35;15.40;99.90
25668;DHT22;18003;-33.830;151.202;2023-07-31T13:42:05;15.50;99.90
25668;DHT22;18003;-33.830;151.202;2023-07-31T13:44:40;15.40;99.90
25668;DHT22;18003;-33.830;151.202;2023-07-31T13:47:11;15.50;99.90
25668;DHT22;18003;-33.830;151.202;2023-07-31T13:49:40;15.50;99.90
25668;DHT22;18003;-33.830;151.202;2023-07-31T13:52:11;15.50;99.90
25668;DHT22;18003;-33.830;151.202;2023-07-31T13:54:41;15.50;99.90
25668;DHT22;18003;-33.830;151.202;2023-07-31T13:57:11;15.50;99.90
25668;DHT22;18003;-33.830;151.202;2023-07-31T13:59:40;15.50;99.90
25668;DHT22;18003;-33.830;151.202;2023-07-31T14:02:11;15.50;99.90
25668;DHT22;18003;-33.830;151.202;2023-07-31T14:04:41;15.50;99.90
25668;DHT22;18003;-33.830;151.202;2023-07-31T14:07:12;15.50;99.90
25668;DHT22;18003;-33.830;151.202;2023-07-31T14:09:42;15.50;99.90
25668;DHT22;18003;-33.830;151.202;2023-07-31T14:12:12;15.50;99.90
25668;DHT22;18003;-33.830;151.202;2023-07-31T14:14:42;15.50;99.90
25668;DHT22;18003;-33.830;151.202;2023-07-31T14:17:12;15.50;99.90
25668;DHT22;18003;-33.830;151.202;2023-07-31T14:19:42;15.50;99.90
25668;DHT22;18003;-33.830;151.202;2023-07-31T14:22:12;15.50;99.90
25668;DHT22;18003;-33.830;151.202;2023-07-31T14:24:42;15.50;99.90
25668;DHT22;18003;-33.830;151.202;2023-07-31T14:27:12;15.50;99.90
25668;DHT22;18003;-33.830;151.202;2023-07-31T14:29:42;15.50;99.90
25668;DHT22;18003;-33.830;151.202;2023-07-31T14:32:13;15.50;99.90
25668;DHT22;18003;-33.830;151.202;2023-07-31T14:34:45;15.50;99.90
25668;DHT22;18003;-33.830;151.202;2023-07-31T14:37:19;15.50;99.90
25668;DHT22;18003;-33.830;151.202;2023-07-31T14:39:48;15.50;99.90
25668;DHT22;18003;-33.830;151.202;2023-07-31T14:42:18;15.50;99.90
25668;DHT22;18003;-33.830;151.202;2023-07-31T14:44:48;15.50;99.90
25668;DHT22;18003;-33.830;151.202;2023-07-31T14:47:18;15.50;99.90
25668;DHT22;18003;-33.830;151.202;2023-07-31T14:49:49;15.50;99.90
25668;DHT22;18003;-33.830;151.202;2023-07-31T14:52:19;15.50;99.90
25668;DHT22;18003;-33.830;151.202;2023-07-31T14:54:49;15.50;99.90
25668;DHT22;18003;-33.830;151.202;2023-07-31T14:57:19;15.50;99.90
25668;DHT22;18003;-33.830;151.202;2023-07-31T14:59:49;15.50;99.90
25668;DHT22;18003;-33.830;151.202;2023-07-31T15:02:19;15.50;99.90
25668;DHT22;18003;-33.830;151.202;2023-07-31T15:04:55;15.50;99.90
25668;DHT22;18003;-33.830;151.202;2023-07-31T15:07:23;15.50;99.90
25668;DHT22;18003;-33.830;151.202;2023-07-31T15:10:08;15.50;99.90
25668;DHT22;18003;-33.830;151.202;2023-07-31T15:12:30;15.50;99.90
25668;DHT22;18003;-33.830;151.202;2023-07-31T15:15:01;15.50;99.90
25668;DHT22;18003;-33.830;151.202;2023-07-31T15:17:31;15.50;99.90
25668;DHT22;18003;-33.830;151.202;2023-07-31T15:20:01;15.40;99.90
25668;DHT22;18003;-33.830;151.202;2023-07-31T15:22:31;15.50;99.90